Time,TemperatureF,DewpointF,PressureIn,WindDirection,WindDirectionDegrees,WindSpeedMPH,WindSpeedGustMPH,Humidity,HourlyPrecipIn,Conditions,Clouds,dailyrainin,SoftwareType,DateUTC
2013-10-16 00:04:00,53.6,52.0,30.05,North,11,0.0,0.0,93,0.04,,,0.53,weatherlink.com 1.10,2013-10-16 05:04:00,
2013-10-16 00:19:00,53.6,52.0,30.04,North,11,0.0,0.0,94,0.03,,,0.00,weatherlink.com 1.10,2013-10-16 05:19:00,
2013-10-16 00:34:00,53.8,52.0,30.07,NW,309,0.0,0.0,94,0.03,,,0.01,weatherlink.com 1.10,2013-10-16 05:34:00,
2013-10-16 00:49:00,53.8,52.0,30.05,NNE,28,0.0,0.0,94,0.02,,,0.01,weatherlink.com 1.10,2013-10-16 05:49:00,
2013-10-16 01:04:00,54.1,52.0,30.04,NNE,28,0.0,0.0,93,0.01,,,0.01,weatherlink.com 1.10,2013-10-16 06:04:00,
2013-10-16 01:19:00,54.3,52.0,30.05,NNE,28,0.0,0.0,92,0.00,,,0.01,weatherlink.com 1.10,2013-10-16 06:19:00,
2013-10-16 01:34:00,54.6,52.0,30.04,NNE,28,0.0,0.0,92,0.00,,,0.01,weatherlink.com 1.10,2013-10-16 06:34:00,
2013-10-16 01:49:00,54.5,52.0,30.03,NNE,17,0.0,0.0,91,0.00,,,0.01,weatherlink.com 1.10,2013-10-16 06:49:00,
2013-10-16 02:04:00,54.5,52.0,30.05,North,355,0.0,0.0,90,0.00,,,0.01,weatherlink.com 1.10,2013-10-16 07:04:00,
2013-10-16 02:19:00,54.5,51.0,30.05,NNE,17,0.0,0.0,89,0.00,,,0.01,weatherlink.com 1.10,2013-10-16 07:19:00,
2013-10-16 02:34:00,54.3,51.0,30.04,NNE,12,0.0,0.0,88,0.00,,,0.01,weatherlink.com 1.10,2013-10-16 07:34:00,
2013-10-16 02:49:00,54.2,51.0,30.04,NNE,18,0.0,0.0,87,0.00,,,0.01,weatherlink.com 1.10,2013-10-16 07:49:00,
2013-10-16 03:04:00,53.9,50.0,30.04,NNE,13,0.0,0.0,87,0.00,,,0.01,weatherlink.com 1.10,2013-10-16 08:04:00,
2013-10-16 03:19:00,53.6,50.0,30.04,North,11,0.0,0.0,87,0.00,,,0.01,weatherlink.com 1.10,2013-10-16 08:19:00,
2013-10-16 03:34:00,53.5,50.0,30.05,North,5,0.0,0.0,87,0.00,,,0.01,weatherlink.com 1.10,2013-10-16 08:34:00,
2013-10-16 03:49:00,53.4,49.0,30.05,NNE,15,0.0,0.0,86,0.00,,,0.01,weatherlink.com 1.10,2013-10-16 08:49:00,
2013-10-16 04:04:00,53.3,49.0,30.04,North,355,0.0,0.0,86,0.00,,,0.01,weatherlink.com 1.10,2013-10-16 09:04:00,
2013-10-16 04:19:00,53.1,49.0,30.05,North,5,0.0,0.0,85,0.00,,,0.01,weatherlink.com 1.10,2013-10-16 09:19:00,
2013-10-16 04:34:00,52.8,48.0,30.05,NNE,14,0.0,0.0,84,0.00,,,0.01,weatherlink.com 1.10,2013-10-16 09:34:00,
2013-10-16 04:49:00,52.5,48.0,30.05,North,9,0.0,0.0,83,0.00,,,0.01,weatherlink.com 1.10,2013-10-16 09:49:00,
2013-10-16 05:04:00,51.9,47.0,30.05,NNE,22,0.0,0.0,83,0.00,,,0.01,weatherlink.com 1.10,2013-10-16 10:04:00,
2013-10-16 05:19:00,51.7,46.0,30.05,NE,36,0.0,0.0,82,0.00,,,0.01,weatherlink.com 1.10,2013-10-16 10:19:00,
2013-10-16 05:34:00,51.6,46.0,30.06,North,9,0.0,0.0,81,0.00,,,0.01,weatherlink.com 1.10,2013-10-16 10:34:00,
2013-10-16 05:49:00,51.4,45.0,30.07,NNE,13,0.0,0.0,80,0.00,,,0.01,weatherlink.com 1.10,2013-10-16 10:49:00,
2013-10-16 06:04:00,51.2,45.0,30.08,NNE,24,0.0,0.0,80,0.00,,,0.01,weatherlink.com 1.10,2013-10-16 11:04:00,
2013-10-16 06:19:00,51.2,45.0,30.08,North,5,0.0,0.0,79,0.00,,,0.01,weatherlink.com 1.10,2013-10-16 11:19:00,
2013-10-16 06:34:00,51.1,45.0,30.08,NNE,13,0.0,0.0,79,0.00,,,0.01,weatherlink.com 1.10,2013-10-16 11:34:00,
2013-10-16 06:49:00,51.0,45.0,30.08,North,355,0.0,0.0,79,0.00,,,0.01,weatherlink.com 1.10,2013-10-16 11:49:00,
2013-10-16 07:04:00,50.5,44.0,30.09,North,355,0.0,0.0,79,0.00,,,0.01,weatherlink.com 1.10,2013-10-16 12:04:00,
2013-10-16 07:19:00,50.4,44.0,30.10,North,5,0.0,0.0,79,0.00,,,0.01,weatherlink.com 1.10,2013-10-16 12:19:00,
2013-10-16 07:34:00,50.2,44.0,30.11,North,5,0.0,0.0,79,0.00,,,0.01,weatherlink.com 1.10,2013-10-16 12:34:00,
2013-10-16 07:49:00,49.9,44.0,30.11,NNE,24,0.0,0.0,79,0.00,,,0.01,weatherlink.com 1.10,2013-10-16 12:49:00,
2013-10-16 08:04:00,49.6,43.0,30.11,North,11,0.0,0.0,79,0.00,,,0.01,weatherlink.com 1.10,2013-10-16 13:04:00,
2013-10-16 08:19:00,49.6,44.0,30.12,NNE,17,0.0,0.0,80,0.00,,,0.01,weatherlink.com 1.10,2013-10-16 13:19:00,
2013-10-16 08:34:00,49.6,43.0,30.12,North,360,0.0,0.0,79,0.00,,,0.01,weatherlink.com 1.10,2013-10-16 13:34:00,
2013-10-16 08:49:00,49.7,43.0,30.13,North,5,0.0,0.0,79,0.00,,,0.01,weatherlink.com 1.10,2013-10-16 13:49:00,
2013-10-16 09:04:00,50.1,44.0,30.13,NNE,19,0.0,0.0,78,0.00,,,0.01,weatherlink.com 1.10,2013-10-16 14:04:00,
2013-10-16 09:19:00,51.3,44.0,30.13,NNE,32,0.0,0.0,76,0.00,,,0.01,weatherlink.com 1.10,2013-10-16 14:19:00,
2013-10-16 09:34:00,51.9,44.0,30.13,North,355,0.0,0.0,74,0.00,,,0.01,weatherlink.com 1.10,2013-10-16 14:34:00,
2013-10-16 10:05:00,51.8,43.0,30.13,North,5,0.0,0.0,72,0.00,,,0.01,weatherlink.com 1.10,2013-10-16 15:05:00,
2013-10-16 10:20:00,52.6,43.0,30.12,NNE,32,0.0,0.0,70,0.01,,,0.02,weatherlink.com 1.10,2013-10-16 15:20:00,
2013-10-16 10:35:00,52.9,44.0,30.12,North,5,0.0,0.0,71,0.01,,,0.02,weatherlink.com 1.10,2013-10-16 15:35:00,
2013-10-16 10:50:00,53.5,44.0,30.12,NE,52,0.0,0.0,70,0.01,,,0.02,weatherlink.com 1.10,2013-10-16 15:50:00,
2013-10-16 11:05:00,54.8,43.0,30.11,North,9,0.0,0.0,65,0.01,,,0.02,weatherlink.com 1.10,2013-10-16 16:05:00,
2013-10-16 11:20:00,55.3,44.0,30.11,ENE,59,0.0,0.0,65,0.00,,,0.02,weatherlink.com 1.10,2013-10-16 16:20:00,
2013-10-16 11:35:00,55.6,44.0,30.11,NE,36,0.0,0.0,65,0.00,,,0.02,weatherlink.com 1.10,2013-10-16 16:35:00,
2013-10-16 11:50:00,55.4,44.0,30.11,NNW,339,0.0,0.0,65,0.00,,,0.02,weatherlink.com 1.10,2013-10-16 16:50:00,
2013-10-16 12:05:00,56.0,44.0,30.11,North,360,0.0,0.0,64,0.00,,,0.02,weatherlink.com 1.10,2013-10-16 17:05:00,
2013-10-16 12:20:00,57.2,44.0,30.10,NNW,337,0.0,0.0,61,0.00,,,0.02,weatherlink.com 1.10,2013-10-16 17:20:00,
2013-10-16 12:35:00,58.6,45.0,30.09,WNW,302,0.0,0.0,61,0.00,,,0.02,weatherlink.com 1.10,2013-10-16 17:35:00,
2013-10-16 12:50:00,58.8,43.0,30.09,NNW,344,0.0,0.0,57,0.00,,,0.02,weatherlink.com 1.10,2013-10-16 17:50:00,
2013-10-16 13:05:00,59.2,44.0,30.08,North,360,0.0,0.0,57,0.00,,,0.02,weatherlink.com 1.10,2013-10-16 18:05:00,
2013-10-16 13:20:00,59.7,43.0,30.07,NNE,17,0.0,0.0,55,0.00,,,0.02,weatherlink.com 1.10,2013-10-16 18:20:00,
2013-10-16 13:35:00,60.2,43.0,30.07,North,5,0.0,0.0,54,0.00,,,0.02,weatherlink.com 1.10,2013-10-16 18:35:00,
2013-10-16 13:50:00,60.2,43.0,30.05,NNE,16,0.0,0.0,53,0.00,,,0.02,weatherlink.com 1.10,2013-10-16 18:50:00,
2013-10-16 14:05:00,61.3,44.0,30.05,North,360,0.0,0.0,54,0.00,,,0.02,weatherlink.com 1.10,2013-10-16 19:05:00,
2013-10-16 14:20:00,61.4,44.0,30.04,North,5,0.0,0.0,53,0.00,,,0.02,weatherlink.com 1.10,2013-10-16 19:20:00,
2013-10-16 14:35:00,62.0,44.0,30.04,NNW,340,0.0,0.0,52,0.00,,,0.02,weatherlink.com 1.10,2013-10-16 19:35:00,
2013-10-16 14:50:00,62.0,44.0,30.04,NNW,338,0.0,0.0,52,0.00,,,0.02,weatherlink.com 1.10,2013-10-16 19:50:00,
2013-10-16 15:05:00,61.8,44.0,30.04,NNW,346,0.0,0.0,52,0.00,,,0.02,weatherlink.com 1.10,2013-10-16 20:05:00,
2013-10-16 15:20:00,62.6,45.0,30.04,NNW,340,0.0,0.0,52,0.00,,,0.02,weatherlink.com 1.10,2013-10-16 20:20:00,
2013-10-16 15:35:00,62.5,43.0,30.03,North,10,0.0,0.0,50,0.00,,,0.02,weatherlink.com 1.10,2013-10-16 20:35:00,
2013-10-16 15:50:00,62.2,44.0,30.03,North,355,0.0,0.0,51,0.00,,,0.02,weatherlink.com 1.10,2013-10-16 20:50:00,
2013-10-16 16:05:00,62.2,44.0,30.02,NNW,337,0.0,0.0,52,0.00,,,0.02,weatherlink.com 1.10,2013-10-16 21:05:00,
2013-10-16 16:20:00,62.1,45.0,30.03,North,355,0.0,0.0,54,0.00,,,0.02,weatherlink.com 1.10,2013-10-16 21:20:00,
2013-10-16 16:35:00,63.2,44.0,30.02,NNW,339,0.0,0.0,49,0.00,,,0.02,weatherlink.com 1.10,2013-10-16 21:35:00,
2013-10-16 16:50:00,62.8,45.0,30.02,NNW,329,0.0,0.0,52,0.00,,,0.02,weatherlink.com 1.10,2013-10-16 21:50:00,
2013-10-16 17:05:00,62.5,44.0,30.02,NNW,342,0.0,0.0,52,0.00,,,0.02,weatherlink.com 1.10,2013-10-16 22:05:00,
2013-10-16 17:20:00,61.6,45.0,30.02,NNW,328,0.0,0.0,54,0.00,,,0.02,weatherlink.com 1.10,2013-10-16 22:20:00,
2013-10-16 17:35:00,60.2,45.0,30.02,NNW,342,0.0,0.0,57,0.00,,,0.02,weatherlink.com 1.10,2013-10-16 22:35:00,
2013-10-16 17:50:00,60.0,45.0,30.02,NNW,333,0.0,0.0,58,0.00,,,0.02,weatherlink.com 1.10,2013-10-16 22:50:00,
2013-10-16 18:05:00,60.2,45.0,30.02,NNW,342,0.0,0.0,57,0.00,,,0.02,weatherlink.com 1.10,2013-10-16 23:05:00,
2013-10-16 18:20:00,60.3,45.0,30.02,North,350,0.0,0.0,58,0.00,,,0.02,weatherlink.com 1.10,2013-10-16 23:20:00,
2013-10-16 18:35:00,58.5,45.0,30.03,NNW,343,0.0,0.0,62,0.00,,,0.02,weatherlink.com 1.10,2013-10-16 23:35:00,
2013-10-16 18:50:00,57.4,46.0,30.04,NNW,329,0.0,0.0,65,0.00,,,0.02,weatherlink.com 1.10,2013-10-16 23:50:00,
2013-10-16 19:05:00,56.6,45.0,30.04,NNW,340,0.0,0.0,65,0.00,,,0.02,weatherlink.com 1.10,2013-10-17 00:05:00,
2013-10-16 19:20:00,55.8,44.0,30.05,NNW,331,0.0,0.0,65,0.00,,,0.02,weatherlink.com 1.10,2013-10-17 00:20:00,
2013-10-16 19:35:00,55.5,44.0,30.05,NNW,345,0.0,0.0,66,0.00,,,0.02,weatherlink.com 1.10,2013-10-17 00:35:00,
2013-10-16 19:50:00,55.2,44.0,30.06,North,350,0.0,0.0,67,0.00,,,0.02,weatherlink.com 1.10,2013-10-17 00:50:00,
2013-10-16 20:05:00,54.9,44.0,30.06,North,355,0.0,0.0,67,0.00,,,0.02,weatherlink.com 1.10,2013-10-17 01:05:00,
2013-10-16 20:20:00,54.8,44.0,30.06,NNW,337,0.0,0.0,67,0.00,,,0.02,weatherlink.com 1.10,2013-10-17 01:20:00,
2013-10-16 20:35:00,54.4,44.0,30.06,NNW,344,0.0,0.0,68,0.00,,,0.02,weatherlink.com 1.10,2013-10-17 01:35:00,
2013-10-16 20:50:00,54.1,44.0,30.07,North,350,0.0,0.0,69,0.00,,,0.02,weatherlink.com 1.10,2013-10-17 01:50:00,
2013-10-16 21:05:00,53.9,44.0,30.07,NNE,32,0.0,0.0,69,0.00,,,0.02,weatherlink.com 1.10,2013-10-17 02:05:00,
2013-10-16 21:20:00,53.8,44.0,30.07,North,355,0.0,0.0,69,0.00,,,0.02,weatherlink.com 1.10,2013-10-17 02:20:00,
2013-10-16 21:35:00,53.8,44.0,30.08,North,349,0.0,0.0,70,0.00,,,0.02,weatherlink.com 1.10,2013-10-17 02:35:00,
2013-10-16 21:50:00,53.5,44.0,30.08,NNW,333,0.0,0.0,71,0.00,,,0.02,weatherlink.com 1.10,2013-10-17 02:50:00,
2013-10-16 22:05:00,52.9,44.0,30.08,NNW,333,0.0,0.0,73,0.00,,,0.02,weatherlink.com 1.10,2013-10-17 03:05:00,
2013-10-16 22:20:00,52.2,45.0,30.09,NNW,333,0.0,0.0,75,0.00,,,0.02,weatherlink.com 1.10,2013-10-17 03:20:00,
2013-10-16 22:35:00,51.5,44.0,30.09,NNW,330,0.0,0.0,76,0.00,,,0.02,weatherlink.com 1.10,2013-10-17 03:35:00,
2013-10-16 22:50:00,50.8,44.0,30.09,NW,325,0.0,0.0,77,0.00,,,0.02,weatherlink.com 1.10,2013-10-17 03:50:00,
2013-10-16 23:05:00,50.3,44.0,30.08,NW,325,0.0,0.0,79,0.00,,,0.02,weatherlink.com 1.10,2013-10-17 04:05:00,
2013-10-16 23:20:00,49.7,44.0,30.08,NW,325,0.0,0.0,80,0.00,,,0.02,weatherlink.com 1.10,2013-10-17 04:20:00,
2013-10-16 23:35:00,49.2,44.0,30.08,NW,325,0.0,0.0,81,0.00,,,0.02,weatherlink.com 1.10,2013-10-17 04:35:00,
2013-10-16 23:50:00,48.6,43.0,30.08,NW,313,0.0,0.0,82,0.00,,,0.02,weatherlink.com 1.10,2013-10-17 04:50:00,